Time,TemperatureF,DewpointF,PressureIn,WindDirection,WindDirectionDegrees,WindSpeedMPH,WindSpeedGustMPH,Humidity,HourlyPrecipIn,Conditions,Clouds,dailyrainin,SoftwareType,DateUTC
2013-03-18 06:11:00,21.6,18.3,29.65,SE,146,11.0,12.0,87,0.00,,OVC100,0.00,VWS V14.01,2013-03-18 11:11:00,
2013-03-18 06:12:00,21.6,18.3,29.65,SSE,153,14.0,17.0,87,0.00,,OVC100,0.00,VWS V14.01,2013-03-18 11:12:00,
2013-03-18 06:14:00,21.6,18.3,29.65,SE,142,11.0,17.0,87,0.00,,OVC100,0.00,VWS V14.01,2013-03-18 11:14:00,
2013-03-18 06:15:00,21.6,18.3,29.64,SE,145,10.0,17.0,87,0.00,,OVC100,0.00,VWS V14.01,2013-03-18 11:15:00,
2013-03-18 06:20:00,21.6,18.3,29.64,SE,145,13.0,21.0,87,0.00,,OVC100,0.00,VWS V14.01,2013-03-18 11:20:00,
2013-03-18 06:25:00,21.6,18.3,29.64,SE,139,10.0,21.0,87,0.00,,OVC100,0.00,VWS V14.01,2013-03-18 11:25:00,
2013-03-18 06:30:00,21.6,18.3,29.64,SE,144,17.0,17.0,87,0.00,,OVC100,0.00,VWS V14.01,2013-03-18 11:30:00,
2013-03-18 06:35:00,21.6,18.1,29.64,SSE,147,12.0,19.0,86,0.00,,,0.00,VWS V14.01,2013-03-18 11:35:00,
2013-03-18 06:40:00,21.4,17.9,29.64,SE,138,10.0,20.0,86,0.00,,,0.00,VWS V14.01,2013-03-18 11:40:00,
2013-03-18 06:45:00,21.4,17.9,29.63,SE,141,13.0,13.0,86,0.00,,,0.00,VWS V14.01,2013-03-18 11:45:00,
2013-03-18 06:50:00,21.6,18.1,29.63,SE,124,14.0,21.0,86,0.00,,,0.00,VWS V14.01,2013-03-18 11:50:00,
2013-03-18 06:55:00,21.6,18.1,29.63,SE,145,14.0,21.0,86,0.00,,,0.00,VWS V14.01,2013-03-18 11:55:00,
2013-03-18 07:00:00,21.6,18.1,29.62,SE,145,14.0,21.0,86,0.00,,OVC043,0.00,VWS V15.00,2013-03-18 12:00:00,
2013-03-18 07:01:00,21.6,18.1,29.62,SE,134,20.0,20.0,86,0.00,,,0.00,VWS V14.01,2013-03-18 12:01:00,
2013-03-18 07:06:00,21.6,18.1,29.62,SE,138,10.0,20.0,86,0.00,,,0.00,VWS V14.01,2013-03-18 12:06:00,
2013-03-18 07:12:00,21.6,18.1,29.62,SSE,147,13.0,20.0,86,0.00,,,0.00,VWS V14.01,2013-03-18 12:12:00,
2013-03-18 07:15:00,21.6,18.3,29.64,SE,145,10.0,17.0,87,0.00,,,0.00,VWS V15.00,2013-03-18 12:15:00,
2013-03-18 07:17:00,21.6,18.1,29.62,SE,138,15.0,21.0,86,0.00,,,0.00,VWS V14.01,2013-03-18 12:17:00,
2013-03-18 07:22:00,21.8,18.3,29.62,SSE,163,13.0,21.0,86,0.00,,,0.00,VWS V14.01,2013-03-18 12:22:00,
2013-03-18 07:28:00,21.8,18.3,29.62,SE,145,18.0,21.0,86,0.00,,,0.00,VWS V14.01,2013-03-18 12:28:00,
2013-03-18 07:30:00,21.6,18.3,29.64,SE,144,17.0,21.0,87,0.00,,,0.00,VWS V15.00,2013-03-18 12:30:00,
2013-03-18 07:33:00,21.9,18.4,29.61,SSE,151,12.0,20.0,86,0.00,,OVC013,0.00,VWS V14.01,2013-03-18 12:33:00,
2013-03-18 07:38:00,21.9,18.4,29.61,SE,142,15.0,20.0,86,0.00,,OVC013,0.00,VWS V14.01,2013-03-18 12:38:00,
2013-03-18 07:43:00,21.9,18.4,29.61,SE,146,11.0,20.0,86,0.00,,OVC013,0.00,VWS V14.01,2013-03-18 12:43:00,
2013-03-18 07:45:00,21.4,17.9,29.63,SE,142,11.0,20.0,86,0.00,,,0.00,VWS V15.00,2013-03-18 12:45:00,
2013-03-18 07:48:00,22.1,18.6,29.60,SSE,159,17.0,20.0,86,0.00,,OVC013,0.00,VWS V14.01,2013-03-18 12:48:00,
2013-03-18 07:53:00,22.1,18.6,29.60,SE,139,14.0,20.0,86,0.00,,OVC013,0.00,VWS V14.01,2013-03-18 12:53:00,
2013-03-18 07:58:00,21.9,18.6,29.60,SSE,147,16.0,26.0,87,0.00,,OVC013,0.00,VWS V14.01,2013-03-18 12:58:00,
2013-03-18 08:00:00,21.6,18.1,29.62,SE,145,14.0,21.0,86,0.00,,,0.00,VWS V15.00,2013-03-18 13:00:00,
2013-03-18 08:03:00,21.9,18.6,29.60,SSE,155,14.0,22.0,87,0.00,,OVC013,0.00,VWS V14.01,2013-03-18 13:03:00,
2013-03-18 08:08:00,22.1,18.8,29.60,SSE,161,12.0,23.0,87,0.00,,OVC013,0.00,VWS V14.01,2013-03-18 13:08:00,
2013-03-18 08:13:00,22.1,18.8,29.60,SSE,157,13.0,23.0,87,0.00,,,0.00,VWS V14.01,2013-03-18 13:13:00,
2013-03-18 08:15:00,21.6,18.1,29.62,SE,146,21.0,21.0,86,0.00,,,0.00,VWS V15.00,2013-03-18 13:15:00,
2013-03-18 08:19:00,22.1,19.1,29.59,SE,128,17.0,23.0,88,0.00,,,0.00,VWS V14.01,2013-03-18 13:19:00,
2013-03-18 08:24:00,22.2,19.2,29.59,SSE,150,16.0,29.0,88,0.00,,,0.00,VWS V14.01,2013-03-18 13:24:00,
2013-03-18 08:29:00,22.2,19.2,29.59,SE,132,23.0,29.0,88,0.00,,,0.00,VWS V14.01,2013-03-18 13:29:00,
2013-03-18 08:30:00,21.8,18.3,29.61,SSE,153,13.0,21.0,86,0.00,,,0.00,VWS V15.00,2013-03-18 13:30:00,
2013-03-18 08:34:00,22.2,19.2,29.58,SE,132,19.0,26.0,88,0.00,,,0.00,VWS V14.01,2013-03-18 13:34:00,
2013-03-18 08:39:00,22.4,19.7,29.58,SSE,151,13.0,26.0,89,0.01,,,0.01,VWS V14.01,2013-03-18 13:39:00,
2013-03-18 08:44:00,22.4,19.7,29.58,SSE,161,14.0,26.0,89,0.01,,,0.01,VWS V14.01,2013-03-18 13:44:00,
2013-03-18 08:45:00,22.1,18.6,29.60,SE,139,14.0,20.0,86,0.00,,,0.00,VWS V15.00,2013-03-18 13:45:00,
2013-03-18 08:49:00,22.5,19.8,29.58,SSE,153,11.0,22.0,89,0.01,,,0.01,VWS V14.01,2013-03-18 13:49:00,
2013-03-18 08:54:00,22.5,19.8,29.58,SSE,156,19.0,25.0,89,0.01,,,0.01,VWS V14.01,2013-03-18 13:54:00,
2013-03-18 08:59:00,22.7,20.0,29.58,SSE,158,13.0,25.0,89,0.01,,,0.01,VWS V14.01,2013-03-18 13:59:00,
2013-03-18 09:00:00,22.1,18.8,29.60,SSE,153,13.0,26.0,87,0.00,,,0.00,VWS V15.00,2013-03-18 14:00:00,
2013-03-18 09:04:00,22.9,20.1,29.57,SE,146,17.0,23.0,89,0.01,,OVC006,0.01,VWS V14.01,2013-03-18 14:04:00,
2013-03-18 09:09:00,23.0,20.2,29.57,SSE,152,13.0,25.0,89,0.01,,OVC006,0.01,VWS V14.01,2013-03-18 14:09:00,
2013-03-18 09:15:00,23.2,20.5,29.57,SE,146,14.0,27.0,89,0.01,,OVC006,0.01,VWS V14.01,2013-03-18 14:15:00,
2013-03-18 09:20:00,23.3,20.5,29.57,SE,136,18.0,21.0,89,0.01,,OVC006,0.01,VWS V14.01,2013-03-18 14:20:00,
2013-03-18 09:25:00,23.3,20.5,29.57,SSE,150,21.0,24.0,89,0.01,,OVC006,0.01,VWS V14.01,2013-03-18 14:25:00,
2013-03-18 09:30:00,23.3,20.5,29.57,SSE,150,16.0,24.0,89,0.01,,OVC006,0.01,VWS V14.01,2013-03-18 14:30:00,
2013-03-18 09:35:00,23.5,21.0,29.57,SE,138,23.0,23.0,90,0.01,,OVC025,0.01,VWS V14.01,2013-03-18 14:35:00,
2013-03-18 09:40:00,23.8,21.3,29.57,SSE,158,14.0,24.0,90,0.01,,OVC025,0.01,VWS V14.01,2013-03-18 14:40:00,
2013-03-18 09:45:00,23.9,21.4,29.56,SSE,164,16.0,19.0,90,0.00,,OVC025,0.01,VWS V14.01,2013-03-18 14:45:00,
2013-03-18 09:51:00,23.9,21.4,29.56,SSE,150,20.0,22.0,90,0.00,,OVC025,0.01,VWS V14.01,2013-03-18 14:51:00,
2013-03-18 09:56:00,24.1,21.6,29.56,SSE,158,17.0,22.0,90,0.00,,OVC025,0.01,VWS V14.01,2013-03-18 14:56:00,
2013-03-18 10:00:00,22.7,20.0,29.57,SE,144,16.0,25.0,89,0.01,,,0.01,VWS V15.00,2013-03-18 15:00:00,
2013-03-18 10:01:00,24.2,21.7,29.55,SSE,162,12.0,23.0,90,0.00,,OVC025,0.01,VWS V14.01,2013-03-18 15:01:00,
2013-03-18 10:06:00,24.4,21.9,29.55,SSE,160,17.0,24.0,90,0.00,,,0.01,VWS V14.01,2013-03-18 15:06:00,
2013-03-18 10:11:00,24.5,22.0,29.55,SE,144,16.0,24.0,90,0.00,,,0.01,VWS V14.01,2013-03-18 15:11:00,
2013-03-18 10:15:00,23.2,20.4,29.57,SE,146,14.0,27.0,89,0.01,,,0.01,VWS V15.00,2013-03-18 15:15:00,
2013-03-18 10:16:00,24.5,22.0,29.55,SE,132,20.0,21.0,90,0.00,,,0.01,VWS V14.01,2013-03-18 15:16:00,
2013-03-18 10:21:00,24.7,22.2,29.55,SE,139,24.0,24.0,90,0.00,,,0.01,VWS V14.01,2013-03-18 15:21:00,
2013-03-18 10:26:00,24.7,22.2,29.55,SSE,153,16.0,24.0,90,0.00,,,0.01,VWS V14.01,2013-03-18 15:26:00,
2013-03-18 10:30:00,23.3,20.5,29.57,SSE,150,16.0,24.0,89,0.01,,,0.01,VWS V15.00,2013-03-18 15:30:00,
2013-03-18 10:31:00,25.0,22.5,29.55,SE,134,14.0,23.0,90,0.00,,,0.01,VWS V14.01,2013-03-18 15:31:00,
2013-03-18 10:36:00,25.0,22.5,29.55,SSE,168,16.0,23.0,90,0.00,,OVC017,0.01,VWS V14.01,2013-03-18 15:36:00,
2013-03-18 10:41:00,25.1,22.6,29.55,SE,144,21.0,24.0,90,0.00,,OVC017,0.01,VWS V14.01,2013-03-18 15:41:00,
2013-03-18 10:45:00,23.9,21.4,29.56,SSE,147,19.0,24.0,90,0.01,,,0.01,VWS V15.00,2013-03-18 15:45:00,
2013-03-18 10:47:00,25.1,22.6,29.54,SSE,166,15.0,22.0,90,0.00,,OVC017,0.01,VWS V14.01,2013-03-18 15:47:00,
2013-03-18 10:52:00,25.1,22.6,29.54,SSE,152,16.0,23.0,90,0.01,,OVC017,0.02,VWS V14.01,2013-03-18 15:52:00,
2013-03-18 10:57:00,25.1,22.6,29.54,SSE,153,20.0,24.0,90,0.01,,OVC017,0.02,VWS V14.01,2013-03-18 15:57:00,
2013-03-18 11:00:00,24.2,21.7,29.55,SE,139,23.0,23.0,90,0.00,,,0.01,VWS V15.00,2013-03-18 16:00:00,
2013-03-18 11:02:00,25.3,22.8,29.55,SSE,165,15.0,17.0,90,0.01,,OVC017,0.02,VWS V14.01,2013-03-18 16:02:00,
2013-03-18 11:07:00,25.3,22.8,29.55,South,176,12.0,18.0,90,0.01,,OVC015,0.02,VWS V14.01,2013-03-18 16:07:00,
2013-03-18 11:12:00,25.4,22.9,29.55,SSE,168,11.0,18.0,90,0.01,,OVC015,0.02,VWS V14.01,2013-03-18 16:12:00,
2013-03-18 11:15:00,24.5,22.0,29.55,SSE,153,18.0,24.0,90,0.00,,,0.01,VWS V15.00,2013-03-18 16:15:00,
2013-03-18 11:17:00,25.6,23.1,29.55,SSE,153,17.0,17.0,90,0.01,,OVC015,0.02,VWS V14.01,2013-03-18 16:17:00,
2013-03-18 11:22:00,25.6,23.1,29.55,South,171,13.0,17.0,90,0.01,,OVC015,0.02,VWS V14.01,2013-03-18 16:22:00,
2013-03-18 11:27:00,25.8,23.3,29.55,SSW,196,11.0,18.0,90,0.01,,OVC015,0.02,VWS V14.01,2013-03-18 16:27:00,
2013-03-18 11:30:00,24.8,22.3,29.55,SSE,152,19.0,24.0,90,0.00,,,0.01,VWS V15.00,2013-03-18 16:30:00,
2013-03-18 11:32:00,26.0,23.7,29.55,SSW,195,14.0,15.0,91,0.01,,OVC009,0.02,VWS V14.01,2013-03-18 16:32:00,
2013-03-18 11:37:00,26.1,23.8,29.55,SSW,213,14.0,20.0,91,0.01,,OVC009,0.02,VWS V14.01,2013-03-18 16:37:00,
2013-03-18 11:42:00,26.6,24.3,29.55,WSW,243,18.0,20.0,91,0.01,,OVC009,0.02,VWS V14.01,2013-03-18 16:42:00,
2013-03-18 11:45:00,25.0,22.5,29.54,SSE,160,14.0,24.0,90,0.00,,,0.01,VWS V15.00,2013-03-18 16:45:00,
2013-03-18 11:47:00,26.4,23.9,29.55,WSW,237,16.0,17.0,90,0.02,,OVC009,0.03,VWS V14.01,2013-03-18 16:47:00,
2013-03-18 11:53:00,26.1,23.3,29.55,SW,214,18.0,21.0,89,0.02,,OVC009,0.03,VWS V14.01,2013-03-18 16:53:00,
2013-03-18 11:58:00,26.0,23.2,29.55,WSW,251,16.0,21.0,89,0.02,,OVC009,0.03,VWS V14.01,2013-03-18 16:58:00,
2013-03-18 12:00:00,25.3,22.8,29.55,SSE,166,15.0,24.0,90,0.01,,,0.02,VWS V15.00,2013-03-18 17:00:00,
2013-03-18 12:03:00,25.7,22.9,29.55,SW,216,12.0,18.0,89,0.01,,OVC007,0.03,VWS V14.01,2013-03-18 17:03:00,
2013-03-18 12:08:00,25.6,22.8,29.55,SW,229,12.0,18.0,89,0.01,,OVC007,0.03,VWS V14.01,2013-03-18 17:08:00,
2013-03-18 12:13:00,25.4,22.6,29.55,SW,234,15.0,18.0,89,0.01,,OVC007,0.03,VWS V14.01,2013-03-18 17:13:00,
2013-03-18 12:15:00,25.4,22.9,29.55,South,177,12.0,18.0,90,0.01,,,0.02,VWS V15.00,2013-03-18 17:15:00,
2013-03-18 12:18:00,25.1,22.3,29.55,WSW,243,9.0,19.0,89,0.01,,OVC007,0.03,VWS V14.01,2013-03-18 17:18:00,
2013-03-18 12:23:00,24.8,21.8,29.55,WSW,239,12.0,19.0,88,0.01,,OVC007,0.03,VWS V14.01,2013-03-18 17:23:00,
2013-03-18 12:29:00,24.7,21.4,29.55,West,264,12.0,19.0,87,0.01,,OVC007,0.03,VWS V14.01,2013-03-18 17:29:00,
2013-03-18 12:30:00,25.8,23.5,29.55,South,191,13.0,18.0,91,0.01,,,0.02,VWS V15.00,2013-03-18 17:30:00,
2013-03-18 12:34:00,24.5,21.2,29.56,WSW,250,9.0,17.0,87,0.01,,OVC014,0.03,VWS V14.01,2013-03-18 17:34:00,
2013-03-18 12:39:00,24.4,20.8,29.56,West,266,11.0,17.0,86,0.01,,OVC014,0.03,VWS V14.01,2013-03-18 17:39:00,
2013-03-18 12:44:00,24.2,20.6,29.56,WSW,244,10.0,17.0,86,0.01,,OVC014,0.03,VWS V14.01,2013-03-18 17:44:00,
2013-03-18 12:45:00,26.4,23.9,29.55,SW,232,17.0,20.0,90,0.01,,,0.02,VWS V15.00,2013-03-18 17:45:00,
2013-03-18 12:49:00,23.9,19.8,29.56,WSW,254,7.0,23.0,84,0.01,,OVC014,0.03,VWS V14.01,2013-03-18 17:49:00,
2013-03-18 12:54:00,23.5,18.8,29.56,WSW,255,16.0,25.0,82,0.01,,OVC014,0.03,VWS V14.01,2013-03-18 17:54:00,
2013-03-18 12:59:00,23.0,18.0,29.56,SW,233,20.0,25.0,81,0.01,,OVC014,0.03,VWS V14.01,2013-03-18 17:59:00,
2013-03-18 13:00:00,25.8,23.0,29.55,WSW,240,14.0,23.0,89,0.02,,,0.03,VWS V15.00,2013-03-18 18:00:00,
2013-03-18 13:04:00,22.9,17.7,29.57,WSW,248,9.0,22.0,80,0.00,,OVC018,0.03,VWS V14.01,2013-03-18 18:04:00,
2013-03-18 13:09:00,23.2,17.7,29.57,WSW,253,22.0,22.0,79,0.00,,OVC018,0.03,VWS V14.01,2013-03-18 18:09:00,
2013-03-18 13:14:00,22.7,16.6,29.57,WNW,284,12.0,23.0,77,0.00,,OVC018,0.03,VWS V14.01,2013-03-18 18:14:00,
2013-03-18 13:15:00,25.3,22.5,29.55,SW,219,14.0,18.0,89,0.01,,,0.03,VWS V15.00,2013-03-18 18:15:00,
2013-03-18 13:19:00,22.9,16.8,29.57,WSW,246,19.0,25.0,77,0.00,,OVC018,0.03,VWS V14.01,2013-03-18 18:19:00,
2013-03-18 13:24:00,22.9,16.5,29.57,SSW,203,16.0,25.0,76,0.00,,OVC018,0.03,VWS V14.01,2013-03-18 18:24:00,
2013-03-18 13:29:00,22.9,16.2,29.57,West,262,4.0,25.0,75,0.00,,OVC018,0.03,VWS V14.01,2013-03-18 18:29:00,
2013-03-18 13:30:00,24.5,21.2,29.56,WSW,240,15.0,19.0,87,0.01,,,0.03,VWS V15.00,2013-03-18 18:30:00,
2013-03-18 13:34:00,22.7,16.0,29.57,WSW,253,19.0,19.0,75,0.00,,OVC019,0.03,VWS V14.01,2013-03-18 18:34:00,
2013-03-18 13:39:00,22.9,16.2,29.57,WSW,237,16.0,20.0,75,0.00,,OVC019,0.03,VWS V14.01,2013-03-18 18:39:00,
2013-03-18 13:44:00,23.2,16.5,29.57,West,270,10.0,20.0,75,0.00,,OVC019,0.03,VWS V14.01,2013-03-18 18:44:00,
2013-03-18 13:45:00,24.1,20.5,29.56,WSW,250,8.0,17.0,86,0.01,,,0.03,VWS V15.00,2013-03-18 18:45:00,
2013-03-18 13:49:00,23.6,16.2,29.57,West,267,20.0,25.0,73,0.00,,OVC019,0.03,VWS V14.01,2013-03-18 18:49:00,
2013-03-18 13:54:00,24.1,16.7,29.57,WSW,240,9.0,25.0,73,0.00,,OVC019,0.03,VWS V14.01,2013-03-18 18:54:00,
2013-03-18 13:59:00,24.1,16.4,29.57,WSW,239,14.0,25.0,72,0.00,,OVC019,0.03,VWS V14.01,2013-03-18 18:59:00,
2013-03-18 14:00:00,23.0,18.0,29.57,WSW,247,12.0,25.0,81,0.01,,,0.03,VWS V15.00,2013-03-18 19:00:00,
2013-03-18 14:05:00,23.9,16.5,29.57,WSW,241,9.0,17.0,73,0.00,,OVC019,0.03,VWS V14.01,2013-03-18 19:05:00,
2013-03-18 14:10:00,23.8,15.8,29.57,West,262,9.0,22.0,71,0.00,,OVC019,0.03,VWS V14.01,2013-03-18 19:10:00,
2013-03-18 14:15:00,23.2,15.2,29.57,WSW,237,18.0,23.0,71,0.00,,OVC019,0.03,VWS V14.01,2013-03-18 19:15:00,
2013-03-18 14:20:00,22.5,14.9,29.57,WNW,292,20.0,26.0,72,0.01,,OVC019,0.04,VWS V14.01,2013-03-18 19:20:00,
2013-03-18 14:25:00,22.5,14.9,29.57,WNW,288,14.0,26.0,72,0.01,,OVC019,0.04,VWS V14.01,2013-03-18 19:25:00,
2013-03-18 14:30:00,22.5,14.9,29.57,WSW,250,20.0,26.0,72,0.01,,OVC019,0.04,VWS V14.01,2013-03-18 19:30:00,
2013-03-18 14:35:00,22.4,15.4,29.57,WSW,256,9.0,20.0,74,0.01,,OVC023,0.04,VWS V14.01,2013-03-18 19:35:00,
2013-03-18 14:40:00,21.9,15.5,29.57,WSW,253,4.0,20.0,76,0.01,,OVC023,0.04,VWS V14.01,2013-03-18 19:40:00,
2013-03-18 14:45:00,21.6,15.5,29.57,WSW,252,17.0,20.0,77,0.01,,OVC023,0.04,VWS V14.01,2013-03-18 19:45:00,
2013-03-18 14:50:00,21.6,14.9,29.57,West,263,20.0,23.0,75,0.01,,OVC023,0.04,VWS V14.01,2013-03-18 19:50:00,
2013-03-18 14:55:00,20.6,13.0,29.57,WSW,253,14.0,23.0,72,0.01,,OVC023,0.04,VWS V14.01,2013-03-18 19:55:00,
2013-03-18 15:00:00,20.3,12.4,29.57,WSW,251,11.0,23.0,71,0.01,,OVC023,0.04,VWS V14.01,2013-03-18 20:00:00,
2013-03-18 15:05:00,20.8,13.2,29.57,WSW,257,15.0,17.0,72,0.01,,OVC026,0.04,VWS V14.01,2013-03-18 20:05:00,
2013-03-18 15:10:00,21.8,13.2,29.57,WSW,254,12.0,23.0,69,0.01,,OVC026,0.04,VWS V14.01,2013-03-18 20:10:00,
2013-03-18 15:15:00,23.0,15.0,29.57,WSW,239,19.0,23.0,71,0.00,,,0.03,VWS V15.00,2013-03-18 20:15:00,
2013-03-18 15:16:00,21.9,13.6,29.57,WSW,239,17.0,17.0,70,0.01,,OVC026,0.04,VWS V14.01,2013-03-18 20:16:00,
2013-03-18 15:21:00,21.6,13.0,29.57,SW,233,14.0,20.0,69,0.01,,OVC026,0.04,VWS V14.01,2013-03-18 20:21:00,
2013-03-18 15:26:00,21.0,12.1,29.57,WSW,246,27.0,27.0,68,0.01,,OVC026,0.04,VWS V14.01,2013-03-18 20:26:00,
2013-03-18 15:30:00,22.5,14.9,29.57,West,262,12.0,26.0,72,0.01,,,0.04,VWS V15.00,2013-03-18 20:30:00,
2013-03-18 15:32:00,21.0,12.4,29.57,WSW,243,14.0,14.0,69,0.00,,OVC032,0.04,VWS V14.01,2013-03-18 20:32:00,
2013-03-18 15:37:00,21.3,12.7,29.57,WSW,258,14.0,20.0,69,0.00,,OVC032,0.04,VWS V14.01,2013-03-18 20:37:00,
2013-03-18 15:42:00,21.1,12.2,29.57,SW,227,17.0,23.0,68,0.00,,OVC032,0.04,VWS V14.01,2013-03-18 20:42:00,
2013-03-18 15:45:00,21.6,15.2,29.57,WSW,253,11.0,20.0,76,0.01,,,0.04,VWS V15.00,2013-03-18 20:45:00,
2013-03-18 15:47:00,21.0,12.1,29.57,WSW,253,12.0,25.0,68,0.00,,OVC032,0.04,VWS V14.01,2013-03-18 20:47:00,
2013-03-18 15:53:00,20.3,11.4,29.57,SW,229,15.0,25.0,68,0.00,,OVC032,0.04,VWS V14.01,2013-03-18 20:53:00,
2013-03-18 15:58:00,20.2,11.4,29.57,WSW,241,15.0,25.0,68,0.00,,OVC032,0.04,VWS V14.01,2013-03-18 20:58:00,
2013-03-18 16:00:00,20.3,12.4,29.57,WSW,251,11.0,23.0,71,0.01,,,0.04,VWS V15.00,2013-03-18 21:00:00,
2013-03-18 16:03:00,19.7,10.9,29.57,WSW,246,14.0,24.0,68,0.00,,OVC036,0.04,VWS V14.01,2013-03-18 21:03:00,
2013-03-18 16:08:00,19.7,10.9,29.57,WSW,246,10.0,24.0,68,0.00,,OVC036,0.04,VWS V14.01,2013-03-18 21:08:00,
2013-03-18 16:13:00,19.5,10.7,29.57,WSW,248,12.0,24.0,68,0.00,,OVC036,0.04,VWS V14.01,2013-03-18 21:13:00,
2013-03-18 16:15:00,21.9,13.6,29.57,WSW,237,13.0,23.0,70,0.01,,,0.04,VWS V15.00,2013-03-18 21:15:00,
2013-03-18 16:18:00,19.5,10.7,29.58,West,262,10.0,18.0,68,0.00,,OVC036,0.04,VWS V14.01,2013-03-18 21:18:00,
2013-03-18 16:23:00,19.5,11.0,29.58,WSW,245,14.0,18.0,69,0.00,,OVC036,0.04,VWS V14.01,2013-03-18 21:23:00,
2013-03-18 16:28:00,20.0,11.5,29.58,WSW,244,11.0,18.0,69,0.00,,OVC036,0.04,VWS V14.01,2013-03-18 21:28:00,
2013-03-18 16:30:00,20.8,12.6,29.57,West,265,8.0,27.0,70,0.01,,,0.04,VWS V15.00,2013-03-18 21:30:00,
2013-03-18 16:33:00,19.9,11.1,29.59,WSW,245,17.0,25.0,68,0.00,,OVC040,0.04,VWS V14.01,2013-03-18 21:33:00,
2013-03-18 16:38:00,19.1,10.3,29.59,WNW,282,15.0,25.0,68,0.00,,OVC040,0.04,VWS V14.01,2013-03-18 21:38:00,
2013-03-18 16:44:00,18.9,10.1,29.59,WSW,256,1.0,25.0,68,0.00,,OVC040,0.04,VWS V14.01,2013-03-18 21:44:00,
2013-03-18 16:45:00,21.0,12.1,29.57,SW,234,16.0,27.0,68,0.00,,,0.04,VWS V15.00,2013-03-18 21:45:00,
2013-03-18 16:49:00,18.8,10.0,29.59,WSW,243,17.0,19.0,68,0.00,,OVC040,0.04,VWS V14.01,2013-03-18 21:49:00,
2013-03-18 16:54:00,18.6,9.8,29.59,West,261,10.0,22.0,68,0.00,,OVC040,0.04,VWS V14.01,2013-03-18 21:54:00,
2013-03-18 16:59:00,18.4,9.9,29.59,WSW,251,8.0,22.0,69,0.00,,OVC040,0.04,VWS V14.01,2013-03-18 21:59:00,
2013-03-18 17:00:00,20.0,10.8,29.57,WSW,256,21.0,25.0,67,0.00,,,0.04,VWS V15.00,2013-03-18 22:00:00,
2013-03-18 17:04:00,18.8,10.3,29.59,West,259,12.0,17.0,69,0.00,,OVC028,0.04,VWS V14.01,2013-03-18 22:04:00,
2013-03-18 17:09:00,18.8,10.3,29.59,WSW,254,11.0,18.0,69,0.00,,OVC028,0.04,VWS V14.01,2013-03-18 22:09:00,
2013-03-18 17:14:00,18.8,10.6,29.59,West,262,11.0,19.0,70,0.00,,OVC028,0.04,VWS V14.01,2013-03-18 22:14:00,
2013-03-18 17:15:00,19.5,10.7,29.58,WSW,243,16.0,24.0,68,0.00,,,0.04,VWS V15.00,2013-03-18 22:15:00,
2013-03-18 17:19:00,18.9,10.4,29.59,West,267,13.0,20.0,69,0.00,,OVC028,0.04,VWS V14.01,2013-03-18 22:19:00,
2013-03-18 17:24:00,18.9,10.1,29.59,WSW,243,12.0,24.0,68,0.00,,OVC028,0.04,VWS V14.01,2013-03-18 22:24:00,
2013-03-18 17:29:00,18.9,10.1,29.60,West,267,14.0,24.0,68,0.00,,OVC028,0.04,VWS V14.01,2013-03-18 22:29:00,
2013-03-18 17:30:00,20.0,11.1,29.59,WNW,290,18.0,24.0,68,0.00,,,0.04,VWS V15.00,2013-03-18 22:30:00,
2013-03-18 17:35:00,18.9,10.1,29.60,West,265,14.0,20.0,68,0.00,,OVC031,0.04,VWS V14.01,2013-03-18 22:35:00,
2013-03-18 17:40:00,18.8,9.7,29.60,West,262,12.0,20.0,67,0.00,,OVC031,0.04,VWS V14.01,2013-03-18 22:40:00,
2013-03-18 17:45:00,18.4,9.6,29.60,West,279,18.0,23.0,68,0.00,,OVC031,0.04,VWS V14.01,2013-03-18 22:45:00,
2013-03-18 17:50:00,18.3,9.9,29.60,West,272,4.0,18.0,69,0.00,,OVC031,0.04,VWS V14.01,2013-03-18 22:50:00,
2013-03-18 17:55:00,18.3,9.5,29.60,WSW,257,11.0,20.0,68,0.00,,OVC031,0.04,VWS V14.01,2013-03-18 22:55:00,
2013-03-18 18:00:00,18.4,9.6,29.60,West,274,9.0,12.0,68,0.00,,OVC031,0.04,VWS V14.01,2013-03-18 23:00:00,
2013-03-18 18:05:00,18.6,9.5,29.60,WSW,246,21.0,22.0,67,0.00,,OVC065,0.04,VWS V14.01,2013-03-18 23:05:00,
2013-03-18 18:10:00,18.8,9.3,29.60,West,272,21.0,24.0,66,0.00,,OVC065,0.04,VWS V14.01,2013-03-18 23:10:00,
2013-03-18 18:15:00,18.8,9.7,29.61,West,274,18.0,18.0,67,0.00,,OVC065,0.04,VWS V14.01,2013-03-18 23:15:00,
2013-03-18 18:20:00,18.6,9.5,29.61,West,277,9.0,22.0,67,0.00,,OVC065,0.04,VWS V14.01,2013-03-18 23:20:00,
2013-03-18 18:25:00,18.3,9.2,29.61,West,259,16.0,23.0,67,0.00,,OVC065,0.04,VWS V14.01,2013-03-18 23:25:00,
2013-03-18 18:30:00,18.0,9.2,29.61,WSW,258,13.0,13.0,68,0.00,,OVC065,0.04,VWS V14.01,2013-03-18 23:30:00,
2013-03-18 18:35:00,18.0,9.2,29.61,WNW,284,15.0,23.0,68,0.00,,OVC065,0.04,VWS V14.01,2013-03-18 23:35:00,
2013-03-18 18:41:00,17.7,8.9,29.61,WNW,288,9.0,23.0,68,0.00,,OVC065,0.04,VWS V14.01,2013-03-18 23:41:00,
2013-03-18 18:45:00,18.4,9.6,29.60,West,275,18.0,23.0,68,0.00,,,0.04,VWS V15.00,2013-03-18 23:45:00,
2013-03-18 18:46:00,17.7,9.3,29.61,West,262,8.0,8.0,69,0.00,,OVC065,0.04,VWS V14.01,2013-03-18 23:46:00,
2013-03-18 18:51:00,17.5,9.4,29.61,WSW,253,12.0,21.0,70,0.00,,OVC065,0.04,VWS V14.01,2013-03-18 23:51:00,
2013-03-18 18:56:00,17.5,9.4,29.61,WSW,258,11.0,21.0,70,0.00,,OVC065,0.04,VWS V14.01,2013-03-18 23:56:00,
2013-03-18 19:00:00,18.4,9.6,29.60,WSW,248,12.0,20.0,68,0.00,,,0.04,VWS V15.00,2013-03-19 00:00:00,
2013-03-18 19:01:00,17.3,9.5,29.62,West,268,5.0,12.0,71,0.00,,OVC065,0.04,VWS V14.01,2013-03-19 00:01:00,
2013-03-18 19:07:00,17.3,9.8,29.62,West,274,6.0,14.0,72,0.00,,OVC065,0.04,VWS V14.01,2013-03-19 00:07:00,
2013-03-18 19:12:00,17.3,9.8,29.62,WSW,256,12.0,17.0,72,0.00,,OVC065,0.04,VWS V14.01,2013-03-19 00:12:00,
2013-03-18 19:15:00,18.8,9.7,29.61,West,265,18.0,24.0,67,0.00,,,0.04,VWS V15.00,2013-03-19 00:15:00,
2013-03-18 19:17:00,17.3,9.8,29.62,WSW,254,9.0,19.0,72,0.00,,OVC065,0.04,VWS V14.01,2013-03-19 00:17:00,
2013-03-18 19:22:00,17.5,10.0,29.62,West,270,15.0,20.0,72,0.00,,OVC065,0.04,VWS V14.01,2013-03-19 00:22:00,
2013-03-18 19:27:00,17.8,10.0,29.62,WSW,253,4.0,20.0,71,0.00,,OVC065,0.04,VWS V14.01,2013-03-19 00:27:00,
2013-03-18 19:30:00,18.0,9.2,29.61,West,278,12.0,23.0,68,0.00,,,0.04,VWS V15.00,2013-03-19 00:30:00,
2013-03-18 19:32:00,18.0,9.9,29.62,West,271,21.0,22.0,70,0.00,,OVC065,0.04,VWS V14.01,2013-03-19 00:32:00,
2013-03-18 19:37:00,18.0,9.6,29.62,WNW,288,15.0,22.0,69,0.00,,OVC065,0.04,VWS V14.01,2013-03-19 00:37:00,
2013-03-18 19:43:00,18.0,9.6,29.62,West,265,10.0,27.0,69,0.00,,OVC065,0.04,VWS V14.01,2013-03-19 00:43:00,
2013-03-18 19:45:00,17.7,9.3,29.61,West,264,0.0,23.0,69,0.00,,,0.04,VWS V15.00,2013-03-19 00:45:00,
2013-03-18 19:48:00,18.0,9.6,29.62,West,272,16.0,25.0,69,0.00,,OVC065,0.04,VWS V14.01,2013-03-19 00:48:00,
2013-03-18 19:53:00,17.8,9.7,29.62,West,264,11.0,25.0,70,0.00,,OVC065,0.04,VWS V14.01,2013-03-19 00:53:00,
2013-03-18 19:58:00,17.8,9.4,29.62,West,267,12.0,26.0,69,0.00,,OVC065,0.04,VWS V14.01,2013-03-19 00:58:00,
2013-03-18 20:00:00,17.3,9.5,29.62,WSW,255,11.0,21.0,71,0.00,,,0.04,VWS V15.00,2013-03-19 01:00:00,
2013-03-18 20:03:00,17.7,9.6,29.63,West,265,9.0,20.0,70,0.00,,OVC065,0.04,VWS V14.01,2013-03-19 01:03:00,
2013-03-18 20:09:00,17.5,9.4,29.63,West,277,9.0,20.0,70,0.00,,OVC065,0.04,VWS V14.01,2013-03-19 01:09:00,
2013-03-18 20:14:00,17.5,9.4,29.63,West,275,14.0,20.0,70,0.00,,OVC065,0.04,VWS V14.01,2013-03-19 01:14:00,
2013-03-18 20:15:00,17.3,9.8,29.62,West,260,18.0,18.0,72,0.00,,,0.04,VWS V15.00,2013-03-19 01:15:00,
2013-03-18 20:19:00,17.3,9.5,29.64,West,267,15.0,22.0,71,0.00,,OVC065,0.04,VWS V14.01,2013-03-19 01:19:00,
2013-03-18 20:24:00,17.2,9.4,29.64,WNW,288,13.0,22.0,71,0.00,,OVC065,0.04,VWS V14.01,2013-03-19 01:24:00,
2013-03-18 20:29:00,17.2,8.8,29.64,West,260,9.0,22.0,69,0.00,,OVC065,0.04,VWS V14.01,2013-03-19 01:29:00,
2013-03-18 20:30:00,17.8,9.7,29.62,WSW,255,8.0,20.0,70,0.00,,,0.04,VWS V15.00,2013-03-19 01:30:00,
2013-03-18 20:34:00,17.0,9.6,29.64,WSW,255,10.0,19.0,72,0.00,,OVC080,0.04,VWS V14.01,2013-03-19 01:34:00,
2013-03-18 20:39:00,16.7,9.3,29.64,West,281,9.0,21.0,72,0.00,,OVC080,0.04,VWS V14.01,2013-03-19 01:39:00,
2013-03-18 20:44:00,16.5,8.8,29.64,WSW,246,11.0,23.0,71,0.00,,OVC080,0.04,VWS V14.01,2013-03-19 01:44:00,
2013-03-18 20:45:00,18.0,9.6,29.62,West,260,17.0,27.0,69,0.00,,,0.04,VWS V15.00,2013-03-19 01:45:00,
2013-03-18 20:49:00,16.4,8.7,29.64,West,273,9.0,21.0,71,0.00,,OVC080,0.04,VWS V14.01,2013-03-19 01:49:00,
2013-03-18 20:54:00,16.2,8.1,29.64,West,265,8.0,21.0,70,0.00,,OVC080,0.04,VWS V14.01,2013-03-19 01:54:00,
2013-03-18 20:59:00,16.1,8.4,29.65,West,267,17.0,22.0,71,0.00,,OVC080,0.04,VWS V14.01,2013-03-19 01:59:00,
2013-03-18 21:00:00,17.7,9.3,29.63,West,276,15.0,26.0,69,0.00,,,0.04,VWS V15.00,2013-03-19 02:00:00,
2013-03-18 21:05:00,15.9,7.9,29.65,WNW,292,13.0,16.0,70,0.00,,OVC080,0.04,VWS V14.01,2013-03-19 02:05:00,
2013-03-18 21:10:00,15.7,7.7,29.65,West,278,10.0,23.0,70,0.00,,OVC080,0.04,VWS V14.01,2013-03-19 02:10:00,
2013-03-18 21:15:00,15.6,7.6,29.65,West,267,10.0,23.0,70,0.00,,OVC080,0.04,VWS V14.01,2013-03-19 02:15:00,
2013-03-18 21:20:00,15.6,7.3,29.65,West,279,0.0,22.0,69,0.00,,OVC080,0.04,VWS V14.01,2013-03-19 02:20:00,
2013-03-18 21:25:00,15.6,7.3,29.65,West,267,3.0,22.0,69,0.00,,OVC080,0.04,VWS V14.01,2013-03-19 02:25:00,
2013-03-18 21:30:00,15.7,7.0,29.66,West,267,9.0,12.0,68,0.00,,OVC080,0.04,VWS V14.01,2013-03-19 02:30:00,
2013-03-18 21:36:00,15.6,7.3,29.66,WNW,291,18.0,22.0,69,0.00,,OVC055,0.04,VWS V14.01,2013-03-19 02:36:00,
2013-03-18 21:41:00,15.6,6.9,29.66,WNW,285,19.0,22.0,68,0.00,,OVC055,0.04,VWS V14.01,2013-03-19 02:41:00,
2013-03-18 21:45:00,16.5,8.8,29.64,West,272,16.0,23.0,71,0.00,,,0.04,VWS V15.00,2013-03-19 02:45:00,
2013-03-18 21:47:00,15.6,7.3,29.67,West,273,22.0,22.0,69,0.00,,OVC055,0.04,VWS V14.01,2013-03-19 02:47:00,
2013-03-18 21:52:00,15.4,6.7,29.67,West,260,14.0,26.0,68,0.00,,OVC055,0.04,VWS V14.01,2013-03-19 02:52:00,
2013-03-18 21:57:00,15.2,6.6,29.67,West,268,15.0,26.0,68,0.00,,OVC055,0.04,VWS V14.01,2013-03-19 02:57:00,
2013-03-18 22:00:00,16.1,8.4,29.65,WNW,290,11.0,22.0,71,0.00,,,0.04,VWS V15.00,2013-03-19 03:00:00,
2013-03-18 22:02:00,15.1,6.1,29.68,WNW,291,6.0,20.0,67,0.00,,SCT055,0.04,VWS V14.01,2013-03-19 03:02:00,
2013-03-18 22:07:00,14.9,6.6,29.68,West,270,11.0,20.0,69,0.00,,SCT055,0.04,VWS V14.01,2013-03-19 03:07:00,
2013-03-18 22:12:00,14.8,6.5,29.68,WNW,286,3.0,20.0,69,0.00,,SCT055,0.04,VWS V14.01,2013-03-19 03:12:00,
2013-03-18 22:15:00,15.6,7.6,29.65,West,267,10.0,23.0,70,0.00,,,0.04,VWS V15.00,2013-03-19 03:15:00,
2013-03-18 22:17:00,14.6,6.3,29.68,WNW,291,13.0,20.0,69,0.00,,SCT055,0.04,VWS V14.01,2013-03-19 03:17:00,
2013-03-18 22:23:00,14.6,6.3,29.68,West,277,6.0,20.0,69,0.00,,SCT055,0.04,VWS V14.01,2013-03-19 03:23:00,
2013-03-18 22:28:00,14.6,6.3,29.68,West,274,13.0,20.0,69,0.00,,SCT055,0.04,VWS V14.01,2013-03-19 03:28:00,
2013-03-18 22:30:00,15.7,7.0,29.66,SW,233,12.0,22.0,68,0.00,,,0.04,VWS V15.00,2013-03-19 03:30:00,
2013-03-18 22:33:00,14.4,6.1,29.69,WNW,291,5.0,22.0,69,0.00,,OVC060,0.04,VWS V14.01,2013-03-19 03:33:00,
2013-03-18 22:38:00,14.4,6.1,29.69,WSW,250,10.0,22.0,69,0.00,,OVC060,0.04,VWS V14.01,2013-03-19 03:38:00,
2013-03-18 22:43:00,14.3,5.7,29.69,WNW,291,12.0,22.0,68,0.00,,OVC060,0.04,VWS V14.01,2013-03-19 03:43:00,
2013-03-18 22:45:00,15.6,6.9,29.67,WNW,291,12.0,26.0,68,0.00,,,0.04,VWS V15.00,2013-03-19 03:45:00,
2013-03-18 22:48:00,14.1,5.8,29.70,NW,310,16.0,20.0,69,0.00,,OVC060,0.04,VWS V14.01,2013-03-19 03:48:00,
2013-03-18 22:53:00,14.1,5.5,29.70,WNW,293,13.0,24.0,68,0.00,,OVC060,0.04,VWS V14.01,2013-03-19 03:53:00,
2013-03-18 22:58:00,14.0,5.4,29.70,WNW,297,15.0,24.0,68,0.00,,OVC060,0.04,VWS V14.01,2013-03-19 03:58:00,
2013-03-18 23:00:00,14.0,5.1,29.70,WNW,286,14.0,24.0,67,0.00,,OVC060,0.04,VWS V14.01,2013-03-19 04:00:00,
2013-03-18 23:01:00,13.8,5.2,29.70,WNW,296,14.0,18.0,68,0.00,,OVC060,0.04,VWS V14.01,2013-03-19 04:01:00,
2013-03-18 23:03:00,13.8,4.9,29.70,NW,308,11.0,19.0,67,0.00,,OVC060,0.04,VWS V14.01,2013-03-19 04:03:00,
2013-03-18 23:09:00,13.6,5.0,29.70,WNW,293,14.0,19.0,68,0.00,,OVC060,0.04,VWS V14.01,2013-03-19 04:09:00,
2013-03-18 23:14:00,13.5,4.9,29.70,NW,310,15.0,23.0,68,0.00,,OVC060,0.04,VWS V14.01,2013-03-19 04:14:00,
2013-03-18 23:15:00,14.6,6.3,29.68,WNW,291,11.0,20.0,69,0.00,,,0.04,VWS V15.00,2013-03-19 04:15:00,
2013-03-18 23:19:00,13.5,4.6,29.70,WNW,293,15.0,18.0,67,0.00,,OVC060,0.04,VWS V14.01,2013-03-19 04:19:00,
2013-03-18 23:24:00,13.3,4.7,29.70,WNW,291,21.0,21.0,68,0.00,,OVC060,0.04,VWS V14.01,2013-03-19 04:24:00,
2013-03-18 23:29:00,13.3,4.4,29.70,WNW,289,21.0,21.0,67,0.00,,OVC060,0.04,VWS V14.01,2013-03-19 04:29:00,
2013-03-18 23:30:00,14.4,6.1,29.69,West,266,6.0,20.0,69,0.00,,,0.04,VWS V15.00,2013-03-19 04:30:00,
2013-03-18 23:34:00,13.1,4.2,29.71,WNW,288,9.0,19.0,67,0.00,,OVC070,0.04,VWS V14.01,2013-03-19 04:34:00,
2013-03-18 23:39:00,12.9,4.3,29.71,WNW,300,11.0,19.0,68,0.00,,OVC070,0.04,VWS V14.01,2013-03-19 04:39:00,
2013-03-18 23:44:00,12.6,4.1,29.71,WNW,294,4.0,20.0,68,0.00,,OVC070,0.04,VWS V14.01,2013-03-19 04:44:00,
2013-03-18 23:45:00,14.3,6.0,29.70,WNW,292,4.0,22.0,69,0.00,,,0.04,VWS V15.00,2013-03-19 04:45:00,
2013-03-18 23:49:00,12.4,3.9,29.71,WNW,302,6.0,20.0,68,0.00,,OVC070,0.04,VWS V14.01,2013-03-19 04:49:00,
2013-03-18 23:54:00,12.4,3.9,29.71,WNW,302,13.0,20.0,68,0.00,,OVC070,0.04,VWS V14.01,2013-03-19 04:54:00,